22:01
Airports
History
Links
Donate
Help keep this website running!
PayPal
Bitcoin
This page is community maintained. The information is intended for PC simulator navigation or reference.
Always use approved charts for navigation.
VE24
SOOKERATING
SOOKERATING (VE24)
Doom Dooma, Assam, India (786151)
(U)
Lat/Lng:27° 33' 10.3" N / 95° 34' 14.34" E
27.552861 / 95.570649
Elevation:400'ft / 122mMSL
ID / ICAO:VE24
Runways:1
Longest:03-21
Asphalt 2,012m / 6,600ft
Nearby Weather11:30 GMT 2017-10-18
Nearby weather at VEMN, DIBRUGARH located 34.3 nautical miles from VE24
Altimeter: 29.71
Visibility: 3.1 statute miles
Wind: 3 knots (from 360°)
Temp: 30°c / 86°f
Humidity: 74.7%

METAR: VEMN 181130Z 36003KT 5000 HZ FEW020 BKN100 30/25 Q1006 NOSIG

(Powered by phpweather)
Nearby VORs <50NM
Nearby NDBs
Runway 03 / 21
Dimensions:2011.7 x 45.1m 6600' x 148'ft
Surface:Asphalt
Edge Lights:Medium intensity
Runway 03 [A]Runway 21 [B]
Heading:034°TH 214°TH
Lat:
Lng:
27° 32' 43.57"N
95° 33' 53.34"E
27° 33' 37.03"N
95° 34' 35.33"E
User Notes and Comments
27° 33' 10.3" N / 95° 34' 14.34" E
Distance To
Airport ID:
Nearby Airports
(U) CHABUA 28.5 NM
VECA WSW 257°
(C) DIBRUGARH 34.3 NM
VEMN ( WX ) W 262°
4 TEJU NEW 43.7 NM
VE48 NE 52°
4 ALONG 63.7 NM
VEAN NW 312°
(U) CHAUKAN PASS 91.4 NM
VE91 ESE 105°
(C) LILABARI 92.1 NM
VELR ( WX ) WSW 258°
(C) JORHAT 102.8 NM
VEJT SW 236°
VFR Chart
Flight Planning at SkyVector.com